createdAt,value
2022-08-24T00:02:44.479Z,18.42
2022-08-24T00:07:52.058Z,18.46
2022-08-24T00:12:55.795Z,18.58
2022-08-24T00:18:00.158Z,18.71
2022-08-24T00:23:04.043Z,18.82
2022-08-24T00:28:08.031Z,18.84
2022-08-24T00:33:11.474Z,18.84
2022-08-24T00:38:15.358Z,18.85
2022-08-24T00:43:25.467Z,18.90
2022-08-24T00:48:32.595Z,18.94
2022-08-24T00:53:40.002Z,19.04
2022-08-24T00:58:47.488Z,19.10
2022-08-24T01:04:00.690Z,19.03
2022-08-24T01:09:09.326Z,18.90
2022-08-24T01:14:14.758Z,18.90
2022-08-24T01:19:49.607Z,18.94
2022-08-24T01:24:54.133Z,19.01
2022-08-24T01:30:02.685Z,19.01
2022-08-24T01:35:08.632Z,18.96
2022-08-24T01:40:12.240Z,18.98
2022-08-24T01:45:16.112Z,18.97
2022-08-24T01:50:22.299Z,18.93
2022-08-24T01:55:25.807Z,18.85
2022-08-24T02:00:32.099Z,18.70
2022-08-24T02:05:36.693Z,18.67
2022-08-24T02:10:40.062Z,18.66
2022-08-24T02:15:43.648Z,18.60
2022-08-24T02:20:51.913Z,18.56
2022-08-24T02:25:55.923Z,18.51
2022-08-24T02:30:59.584Z,18.37
2022-08-24T02:36:04.050Z,18.25
2022-08-24T02:41:27.433Z,18.20
2022-08-24T02:46:32.624Z,18.19
2022-08-24T02:51:44.186Z,18.16
2022-08-24T02:56:53.396Z,17.99
2022-08-24T03:01:58.694Z,17.96
2022-08-24T03:07:02.764Z,17.93
2022-08-24T03:12:07.381Z,17.96
2022-08-24T03:17:12.136Z,17.88
2022-08-24T03:22:16.578Z,17.78
2022-08-24T03:27:21.235Z,17.82
2022-08-24T03:32:25.330Z,17.76
2022-08-24T03:37:30.001Z,17.67
2022-08-24T03:42:35.026Z,17.59
2022-08-24T03:47:39.201Z,17.52
2022-08-24T03:52:49.304Z,17.61
2022-08-24T03:57:53.809Z,17.78
2022-08-24T04:02:58.940Z,17.95
2022-08-24T04:08:04.347Z,18.11
2022-08-24T04:13:08.854Z,18.22
2022-08-24T04:18:12.648Z,18.29
2022-08-24T04:23:16.233Z,18.29
2022-08-24T04:28:23.483Z,18.28
2022-08-24T04:33:26.696Z,18.40
2022-08-24T04:38:31.821Z,18.50
2022-08-24T04:43:46.562Z,18.61
2022-08-24T04:48:55.156Z,18.74
2022-08-24T04:54:02.745Z,18.85
2022-08-24T04:59:07.145Z,18.97
2022-08-24T05:04:12.208Z,19.10
2022-08-24T05:09:16.175Z,19.24
2022-08-24T05:14:22.881Z,19.39
2022-08-24T05:19:30.507Z,19.50
2022-08-24T05:24:35.332Z,19.65
2022-08-24T05:29:39.205Z,19.78
2022-08-24T05:34:45.368Z,19.91
2022-08-24T05:39:50.572Z,20.04
2022-08-24T05:44:54.048Z,20.19
2022-08-24T05:49:58.784Z,20.29
2022-08-24T05:55:03.533Z,20.35
2022-08-24T06:00:10.912Z,20.44
2022-08-24T06:05:14.902Z,20.61
2022-08-24T06:10:36.283Z,20.75
2022-08-24T06:15:50.957Z,20.81
2022-08-24T06:21:16.790Z,20.87
2022-08-24T06:26:40.866Z,21.00
2022-08-24T06:31:48.226Z,21.06
2022-08-24T06:36:58.769Z,21.06
2022-08-24T06:42:03.478Z,21.08
2022-08-24T06:47:07.916Z,21.05
2022-08-24T06:52:12.748Z,21.00
2022-08-24T06:57:17.002Z,20.98
2022-08-24T07:02:21.821Z,21.10
2022-08-24T07:07:25.826Z,21.32
2022-08-24T07:12:30.584Z,21.53
2022-08-24T07:17:37.657Z,21.66
2022-08-24T07:22:41.865Z,21.75
2022-08-24T07:27:46.897Z,21.74
2022-08-24T07:32:51.802Z,21.79
2022-08-24T07:37:57.281Z,21.86
2022-08-24T07:43:02.340Z,21.88
2022-08-24T07:48:09.684Z,21.94
2022-08-24T07:53:20.758Z,22.02
2022-08-24T07:58:25.094Z,22.09
2022-08-24T08:03:29.826Z,22.18
2022-08-24T08:08:36.977Z,22.22
2022-08-24T08:19:00.770Z,22.45
2022-08-24T08:24:17.684Z,22.54
2022-08-24T08:29:27.252Z,22.69
2022-08-24T08:34:32.677Z,22.76
2022-08-24T08:39:37.178Z,22.81
2022-08-24T08:45:02.580Z,22.90
2022-08-24T08:50:26.637Z,22.95
2022-08-24T08:55:57.867Z,23.09
2022-08-24T09:01:24.711Z,23.24
2022-08-24T09:06:45.675Z,23.45
2022-08-24T09:12:12.684Z,23.71
2022-08-24T09:17:36.784Z,23.76
2022-08-24T09:22:44.271Z,23.94
2022-08-24T09:28:14.482Z,24.01
2022-08-24T09:33:24.919Z,24.05
2022-08-24T09:38:48.042Z,24.10
2022-08-24T09:44:37.230Z,24.27
2022-08-24T09:50:12.748Z,24.39
2022-08-24T09:55:35.720Z,24.36
2022-08-24T10:00:50.010Z,24.38
2022-08-24T10:06:04.713Z,24.34
2022-08-24T10:11:35.729Z,24.56
2022-08-24T10:17:10.207Z,24.83
2022-08-24T10:22:34.366Z,24.97
2022-08-24T10:27:50.054Z,24.78
2022-08-24T10:33:16.785Z,24.61
2022-08-24T10:38:50.239Z,24.66
2022-08-24T10:44:33.512Z,24.74
2022-08-24T10:49:37.674Z,24.90
2022-08-24T10:54:42.320Z,25.11
2022-08-24T10:59:55.039Z,25.35
2022-08-24T11:05:06.333Z,25.54
2022-08-24T11:10:25.558Z,25.74
2022-08-24T11:15:33.737Z,26.02
2022-08-24T11:20:47.423Z,26.20
2022-08-24T11:26:03.560Z,26.26
2022-08-24T11:31:12.441Z,26.23
2022-08-24T11:36:26.390Z,26.04
2022-08-24T11:41:35.603Z,25.89
2022-08-24T11:46:47.739Z,26.14
2022-08-24T11:51:57.342Z,26.53
2022-08-24T11:57:35.372Z,26.55
2022-08-24T12:03:09.383Z,26.66
2022-08-24T12:08:35.840Z,26.84
2022-08-24T12:13:59.255Z,27.05
2022-08-24T12:19:20.717Z,27.09
2022-08-24T12:24:40.580Z,27.12
2022-08-24T12:30:01.509Z,27.20
2022-08-24T12:35:25.851Z,27.27
2022-08-24T12:40:40.889Z,27.32
2022-08-24T12:45:48.338Z,27.41
2022-08-24T12:51:22.126Z,27.48
2022-08-24T12:57:02.876Z,27.62
2022-08-24T13:02:11.401Z,27.68
2022-08-24T13:07:39.313Z,27.72
2022-08-24T13:12:43.851Z,27.73
2022-08-24T13:17:48.052Z,27.69
2022-08-24T13:23:03.813Z,27.64
2022-08-24T13:28:28.809Z,27.62
2022-08-24T13:33:46.867Z,27.60
2022-08-24T13:39:00.073Z,27.56
2022-08-24T13:44:22.190Z,27.49
2022-08-24T13:49:46.282Z,27.44
2022-08-24T13:55:06.364Z,27.42
2022-08-24T14:00:14.931Z,27.44
2022-08-24T14:05:38.876Z,27.42
2022-08-24T14:11:04.239Z,27.40
2022-08-24T14:17:04.586Z,27.40
2022-08-24T14:22:11.222Z,27.40
2022-08-24T14:27:39.189Z,27.42
2022-08-24T14:32:46.584Z,27.38
2022-08-24T14:38:12.328Z,27.35
2022-08-24T14:43:43.855Z,27.33
2022-08-24T14:49:16.485Z,27.32
2022-08-24T14:55:04.965Z,27.36
2022-08-24T15:00:34.994Z,27.39
2022-08-24T15:06:09.586Z,27.40
2022-08-24T15:11:18.460Z,27.37
2022-08-24T15:16:28.373Z,27.35
2022-08-24T15:21:37.696Z,27.37
2022-08-24T15:27:10.898Z,27.26
2022-08-24T15:32:15.859Z,27.13
2022-08-24T15:37:40.956Z,26.95
2022-08-24T15:42:45.061Z,26.81
2022-08-24T15:47:53.511Z,26.76
2022-08-24T15:53:07.474Z,26.68
2022-08-24T15:58:19.326Z,26.63
2022-08-24T16:03:45.901Z,26.57
2022-08-24T16:09:09.396Z,26.46
2022-08-24T16:14:24.606Z,26.50
2022-08-24T16:19:35.844Z,26.49
2022-08-24T16:24:42.780Z,26.44
2022-08-24T16:29:53.859Z,26.39
2022-08-24T16:35:09.663Z,26.36
2022-08-24T16:40:13.456Z,26.35
2022-08-24T16:45:20.762Z,26.32
2022-08-24T16:50:27.312Z,26.24
2022-08-24T16:55:30.946Z,26.14
2022-08-24T17:00:34.758Z,26.06
2022-08-24T17:05:38.580Z,25.98
2022-08-24T17:10:44.180Z,25.87
2022-08-24T17:15:50.781Z,25.74
2022-08-24T17:20:57.124Z,25.58
2022-08-24T17:26:20.425Z,25.44
2022-08-24T17:31:26.001Z,25.30
2022-08-24T17:36:32.509Z,25.12
2022-08-24T17:41:36.528Z,24.95
2022-08-24T17:46:40.989Z,24.79
2022-08-24T17:51:45.391Z,24.62
2022-08-24T17:56:51.262Z,24.47
2022-08-24T18:02:02.373Z,24.34
2022-08-24T18:07:11.702Z,24.24
2022-08-24T18:12:21.196Z,24.13
2022-08-24T18:17:35.053Z,24.01
2022-08-24T18:22:44.738Z,23.85
2022-08-24T18:27:48.683Z,23.74
2022-08-24T18:32:52.706Z,23.70
2022-08-24T18:37:56.257Z,23.66
2022-08-24T18:43:00.417Z,23.61
2022-08-24T18:48:05.846Z,23.45
2022-08-24T18:53:14.770Z,22.80
2022-08-24T18:58:19.406Z,22.52
2022-08-24T19:03:27.704Z,22.28
2022-08-24T19:08:32.392Z,22.03
2022-08-24T19:13:38.900Z,21.83
2022-08-24T19:18:52.321Z,21.72
2022-08-24T19:23:57.377Z,21.48
2022-08-24T19:29:01.143Z,21.24
2022-08-24T19:34:05.719Z,21.15
2022-08-24T19:39:11.939Z,21.21
2022-08-24T19:44:44.123Z,21.26
2022-08-24T19:49:58.635Z,21.28
2022-08-24T19:55:07.610Z,21.18
2022-08-24T20:00:25.237Z,21.07
2022-08-24T20:05:30.258Z,21.04
2022-08-24T20:10:35.330Z,21.07
2022-08-24T20:15:43.057Z,21.13
2022-08-24T20:20:47.085Z,21.14
2022-08-24T20:25:55.286Z,21.07
2022-08-24T20:30:59.753Z,20.99
2022-08-24T20:36:04.831Z,20.93
2022-08-24T20:41:08.662Z,20.89
2022-08-24T20:46:13.294Z,20.90
2022-08-24T20:51:17.613Z,20.91
2022-08-24T20:56:38.174Z,20.90
2022-08-24T21:01:46.514Z,20.94
2022-08-24T21:06:51.328Z,20.94
2022-08-24T21:11:55.808Z,20.86
2022-08-24T21:16:59.703Z,20.76
2022-08-24T21:22:04.766Z,20.65
2022-08-24T21:27:09.711Z,20.60
2022-08-24T21:32:31.952Z,20.59
2022-08-24T21:37:35.466Z,20.55
2022-08-24T21:42:40.235Z,20.57
2022-08-24T21:47:43.720Z,20.56
2022-08-24T21:52:52.837Z,20.49
2022-08-24T21:57:58.339Z,20.47
2022-08-24T22:03:03.987Z,20.43
2022-08-24T22:08:08.667Z,20.38
2022-08-24T22:13:14.387Z,20.29
2022-08-24T22:18:18.632Z,20.24
2022-08-24T22:23:24.790Z,20.19
2022-08-24T22:28:28.736Z,20.08
2022-08-24T22:33:32.963Z,20.08
2022-08-24T22:38:36.751Z,20.13
2022-08-24T22:44:00.082Z,20.10
2022-08-24T22:49:04.662Z,20.08
2022-08-24T22:54:10.041Z,20.04
2022-08-24T22:59:19.769Z,19.95
2022-08-24T23:04:31.553Z,19.94
2022-08-24T23:09:41.650Z,19.90
2022-08-24T23:14:51.604Z,19.85
2022-08-24T23:20:01.506Z,19.79
2022-08-24T23:25:07.480Z,19.72
2022-08-24T23:30:14.063Z,19.59
2022-08-24T23:35:21.030Z,19.53
2022-08-24T23:40:24.375Z,19.45
2022-08-24T23:45:28.234Z,19.33
2022-08-24T23:50:32.715Z,19.32
2022-08-24T23:55:36.566Z,19.31
